Culiacan, Mexico

12:06 PM MDT on July 27, 2016 (GMT -0600)
Culiacan International | | Change Station

Elev 105 ft 24.77 °N, 107.47 °W | Updated 16 minutes ago

Mostly Cloudy
Mostly Cloudy
91 °F
Feels Like 102 °F
N
4
Wind Variable Wind from South

Today
High -- | Low -- °F
--% Chance of Precip.
Yesterday
High -- | Low -- °F
Precip. -- in
Pressure 29.92 in
Visibility 10.0 miles
Clouds Scattered Clouds 3000 ft
Mostly Cloudy 7000 ft
Heat Index 102 °F
Dew Point 75 °F
Humidity 59%
Rainfall 0.00 in
Snow Depth Not available.
6:35 AM 7:56 PM
Last Quarter, 41% visible
METAR MMCL 271750Z 18003KT 10SM SCT030 BKN070 33/24 A2990 RMK SLP131 54000 911 8/170
Pressure 29.92 in
Visibility 10.0 miles
Clouds Scattered Clouds 3000 ft
Mostly Cloudy 7000 ft
Heat Index 102 °F
Dew Point 75 °F
Humidity 59%
Rainfall 0.00 in
Snow Depth Not available.
6:35 AM 7:56 PM
Last Quarter, 41% visible
METAR MMCL 271750Z 18003KT 10SM SCT030 BKN070 33/24 A2990 RMK SLP131 54000 911 8/170

10-Day Weather Forecast

No radar image for this location.
×

Almanac

Astronomy

Jul. 27, 2016 Rise Set
Actual Time
Civil Twilight
Nautical Twilight
Astronomical Twilight
Moon
Length of Visible Light
Length of Day
Tomorrow will be .
, % of the Moon is Illuminated

Today's Extremes

Country Highs Country Lows

Community

WunderPhotos

Upload Photos

1,927,892 photos uploaded!

WunderBlog® & News

Nearby

Air Quality

  Air Quality AQ Index Pollutant
Not available.

Snow Depth

Station Depth Elevation

Earthquake Activity

City Distance Mag. Time & Date
Minimum magnitude displayed is 2.5.

Coastal Water Temperatures

Place Temperature

Stations

Nearby Weather Stations

Station Location Temp. Windchill Dew Point Humidity Wind Precip. Elev Updated Type